createdAt,value
2022-11-16T00:00:32.655Z,43.72
2022-11-16T00:03:02.314Z,43.43
2022-11-16T00:05:28.960Z,43.84
2022-11-16T00:07:55.635Z,43.39
2022-11-16T00:10:22.268Z,43.47
2022-11-16T00:12:48.896Z,43.69
2022-11-16T00:15:15.543Z,43.75
2022-11-16T00:17:42.174Z,43.79
2022-11-16T00:20:09.257Z,44.03
2022-11-16T00:22:35.889Z,43.34
2022-11-16T00:25:02.520Z,43.61
2022-11-16T00:27:29.145Z,43.78
2022-11-16T00:29:55.785Z,43.39
2022-11-16T00:32:22.399Z,43.30
2022-11-16T00:34:49.013Z,43.62
2022-11-16T00:37:15.743Z,43.82
2022-11-16T00:39:42.357Z,43.87
2022-11-16T00:42:08.979Z,43.98
2022-11-16T00:44:35.600Z,43.72
2022-11-16T00:47:02.218Z,43.98
2022-11-16T00:49:28.844Z,43.59
2022-11-16T00:51:55.480Z,43.64
2022-11-16T00:54:22.113Z,43.77
2022-11-16T00:56:48.739Z,43.78
2022-11-16T00:59:15.387Z,43.39
2022-11-16T01:01:42.039Z,43.85
2022-11-16T01:04:08.694Z,43.81
2022-11-16T01:06:35.328Z,44.13
2022-11-16T01:09:01.988Z,43.73
2022-11-16T01:11:28.604Z,44.04
2022-11-16T01:13:55.327Z,43.39
2022-11-16T01:16:22.595Z,43.57
2022-11-16T01:18:50.223Z,43.58
2022-11-16T01:21:17.063Z,43.49
2022-11-16T01:23:43.676Z,43.42
2022-11-16T01:26:10.307Z,43.55
2022-11-16T01:28:37.227Z,43.60
2022-11-16T01:31:03.919Z,43.60
2022-11-16T01:33:30.610Z,43.65
2022-11-16T01:35:57.218Z,44.05
2022-11-16T01:38:28.472Z,44.11
2022-11-16T01:40:56.285Z,43.60
2022-11-16T01:43:24.615Z,43.81
2022-11-16T01:45:51.229Z,43.74
2022-11-16T01:48:22.044Z,43.64
2022-11-16T01:50:48.715Z,44.23
2022-11-16T01:53:15.445Z,43.62
2022-11-16T01:55:42.640Z,43.95
2022-11-16T01:58:10.147Z,43.93
2022-11-16T02:00:36.762Z,43.46
2022-11-16T02:03:03.404Z,43.86
2022-11-16T02:05:49.230Z,43.96
2022-11-16T02:08:15.712Z,43.86
2022-11-16T02:11:00.521Z,43.89
2022-11-16T02:14:11.627Z,44.20
2022-11-16T02:16:48.946Z,44.15
2022-11-16T02:19:39.337Z,43.85
2022-11-16T02:22:43.423Z,43.62
2022-11-16T02:25:29.752Z,43.74
2022-11-16T02:28:44.409Z,44.27
2022-11-16T02:31:19.817Z,43.86
2022-11-16T02:33:46.819Z,44.02
2022-11-16T02:36:15.174Z,43.59
2022-11-16T02:38:52.884Z,43.95
2022-11-16T02:41:20.505Z,44.07
2022-11-16T02:43:50.760Z,44.20
2022-11-16T02:46:22.721Z,43.77
2022-11-16T02:48:53.524Z,43.86
2022-11-16T02:51:20.234Z,43.71
2022-11-16T02:54:02.054Z,44.24
2022-11-16T02:56:29.056Z,43.84
2022-11-16T02:58:57.143Z,44.16
2022-11-16T03:01:32.636Z,43.96
2022-11-16T03:04:06.011Z,43.82
2022-11-16T03:06:33.509Z,43.86
2022-11-16T03:09:05.002Z,44.05
2022-11-16T03:11:35.663Z,44.11
2022-11-16T03:14:05.630Z,44.12
2022-11-16T03:16:43.374Z,44.02
2022-11-16T03:19:12.504Z,43.99
2022-11-16T03:21:52.401Z,44.09
2022-11-16T03:24:19.109Z,43.93
2022-11-16T03:26:59.333Z,43.94
2022-11-16T03:29:53.748Z,43.73
2022-11-16T03:32:28.385Z,43.92
2022-11-16T03:34:57.700Z,43.91
2022-11-16T03:37:24.328Z,44.28
2022-11-16T03:39:50.952Z,43.77
2022-11-16T03:42:17.567Z,43.85
2022-11-16T03:44:44.187Z,43.84
2022-11-16T03:47:12.274Z,44.02
2022-11-16T03:49:38.879Z,43.94
2022-11-16T03:52:05.494Z,43.76
2022-11-16T03:54:32.113Z,43.98
2022-11-16T03:56:58.741Z,43.97
2022-11-16T03:59:25.372Z,44.19
2022-11-16T04:01:51.978Z,43.77
2022-11-16T04:04:18.606Z,43.74
2022-11-16T04:06:45.225Z,44.17
2022-11-16T04:09:11.840Z,43.99
2022-11-16T04:11:38.451Z,43.83
2022-11-16T04:14:09.058Z,43.74
2022-11-16T04:16:36.113Z,43.77
2022-11-16T04:19:02.728Z,43.82
2022-11-16T04:21:37.453Z,44.38
2022-11-16T04:24:04.242Z,44.40
2022-11-16T04:26:30.858Z,44.17
2022-11-16T04:28:57.513Z,43.79
2022-11-16T04:31:24.169Z,44.35
2022-11-16T04:33:51.260Z,43.83
2022-11-16T04:36:20.567Z,43.80
2022-11-16T04:38:47.540Z,44.10
2022-11-16T04:41:14.164Z,43.73
2022-11-16T04:43:40.799Z,44.24
2022-11-16T04:46:07.406Z,43.66
2022-11-16T04:48:34.342Z,44.19
2022-11-16T04:51:01.180Z,44.12
2022-11-16T04:53:27.803Z,43.80
2022-11-16T04:55:57.960Z,43.79
2022-11-16T04:58:27.187Z,44.26
2022-11-16T05:00:53.947Z,43.91
2022-11-16T05:03:20.653Z,43.85
2022-11-16T05:05:49.634Z,44.02
2022-11-16T05:08:16.249Z,44.08
2022-11-16T05:10:42.867Z,44.32
2022-11-16T05:13:09.470Z,43.85
2022-11-16T05:15:36.070Z,44.04
2022-11-16T05:18:02.733Z,43.73
2022-11-16T05:20:29.356Z,44.01
2022-11-16T05:22:56.148Z,44.31
2022-11-16T05:25:22.759Z,43.95
2022-11-16T05:27:49.375Z,44.28
2022-11-16T05:30:16.211Z,43.96
2022-11-16T05:32:42.831Z,44.10
2022-11-16T05:35:09.431Z,44.25
2022-11-16T05:37:36.041Z,44.25
2022-11-16T05:40:02.655Z,43.86
2022-11-16T05:42:29.268Z,44.24
2022-11-16T05:44:55.886Z,44.04
2022-11-16T05:47:22.502Z,43.77
2022-11-16T05:49:49.105Z,43.79
2022-11-16T05:52:15.719Z,44.05
2022-11-16T05:54:42.347Z,43.57
2022-11-16T05:57:08.953Z,43.53
2022-11-16T05:59:35.564Z,44.25
2022-11-16T06:02:02.233Z,43.68
2022-11-16T06:04:28.838Z,43.51
2022-11-16T06:06:55.524Z,43.69
2022-11-16T06:09:22.168Z,43.50
2022-11-16T06:11:48.762Z,43.90
2022-11-16T06:14:15.371Z,44.16
2022-11-16T06:16:41.981Z,44.07
2022-11-16T06:19:08.588Z,43.79
2022-11-16T06:21:35.190Z,43.54
2022-11-16T06:24:01.812Z,43.65
2022-11-16T06:26:28.429Z,43.84
2022-11-16T06:28:55.049Z,44.04
2022-11-16T06:31:21.822Z,44.10
2022-11-16T06:33:48.532Z,44.10
2022-11-16T06:36:15.143Z,43.62
2022-11-16T06:38:41.762Z,43.66
2022-11-16T06:41:08.375Z,43.78
2022-11-16T06:43:35.017Z,43.86
2022-11-16T06:46:01.625Z,44.25
2022-11-16T06:48:28.237Z,43.97
2022-11-16T06:50:54.841Z,44.09
2022-11-16T06:53:25.917Z,44.17
2022-11-16T06:55:55.507Z,45.05
2022-11-16T06:58:22.125Z,44.96
2022-11-16T07:00:48.737Z,44.91
2022-11-16T07:03:15.358Z,45.67
2022-11-16T07:05:41.971Z,44.76
2022-11-16T07:08:08.583Z,45.15
2022-11-16T07:10:35.192Z,44.96
2022-11-16T07:13:02.776Z,45.49
2022-11-16T07:15:29.371Z,45.25
2022-11-16T07:17:55.979Z,44.83
2022-11-16T07:20:22.589Z,44.90
2022-11-16T07:22:49.193Z,44.96
2022-11-16T07:25:15.905Z,44.68
2022-11-16T07:27:42.534Z,45.27
2022-11-16T07:30:09.481Z,45.14
2022-11-16T07:32:36.115Z,45.16
2022-11-16T07:35:02.722Z,45.12
2022-11-16T07:37:29.339Z,44.83
2022-11-16T07:39:55.937Z,44.88
2022-11-16T07:42:22.547Z,45.71
2022-11-16T07:44:49.145Z,45.19
2022-11-16T07:47:15.781Z,45.38
2022-11-16T07:49:42.397Z,45.16
2022-11-16T07:52:09.834Z,45.17
2022-11-16T07:54:36.886Z,44.91
2022-11-16T07:57:03.513Z,45.14
2022-11-16T07:59:31.353Z,45.09
2022-11-16T08:01:57.980Z,45.00
2022-11-16T08:04:24.941Z,44.78
2022-11-16T08:06:51.698Z,44.70
2022-11-16T08:09:18.470Z,44.75
2022-11-16T08:11:45.096Z,44.13
2022-11-16T08:14:11.791Z,43.99
2022-11-16T08:16:38.436Z,44.44
2022-11-16T08:19:05.048Z,43.85
2022-11-16T08:21:31.670Z,44.36
2022-11-16T08:23:59.004Z,45.57
2022-11-16T08:26:25.773Z,44.84
2022-11-16T08:28:52.385Z,44.89
2022-11-16T08:31:20.713Z,44.49
2022-11-16T08:33:47.328Z,44.76
2022-11-16T08:36:14.587Z,44.76
2022-11-16T08:38:41.213Z,44.76
2022-11-16T08:41:07.900Z,45.11
2022-11-16T08:43:34.582Z,45.18
2022-11-16T08:46:01.217Z,44.85
2022-11-16T08:48:27.834Z,44.83
2022-11-16T08:51:16.462Z,44.74
2022-11-16T08:53:41.039Z,44.57
2022-11-16T08:56:09.355Z,44.61
2022-11-16T08:58:36.248Z,44.74
2022-11-16T09:01:14.303Z,44.35
2022-11-16T09:03:41.230Z,44.82
2022-11-16T09:06:08.266Z,44.48
2022-11-16T09:08:36.368Z,44.36
2022-11-16T09:11:07.379Z,44.71
2022-11-16T09:13:33.993Z,44.88
2022-11-16T09:16:00.719Z,44.76
2022-11-16T09:18:27.318Z,45.03
2022-11-16T09:20:53.953Z,44.97
2022-11-16T09:23:25.048Z,44.89
2022-11-16T09:25:52.062Z,45.10
2022-11-16T09:28:18.689Z,43.95
2022-11-16T09:30:45.690Z,44.37
2022-11-16T09:33:12.332Z,44.38
2022-11-16T09:35:39.162Z,45.41
2022-11-16T09:38:05.978Z,40.37
2022-11-16T09:40:38.021Z,39.51
2022-11-16T09:43:28.919Z,39.80
2022-11-16T09:46:21.898Z,39.04
2022-11-16T09:48:48.649Z,38.70
2022-11-16T09:51:15.726Z,39.65
2022-11-16T09:54:10.665Z,42.13
2022-11-16T09:56:40.767Z,44.09
2022-11-16T09:59:21.035Z,44.67
2022-11-16T10:02:01.169Z,46.24
2022-11-16T10:04:39.890Z,46.60
2022-11-16T10:07:11.214Z,47.11
2022-11-16T10:09:37.842Z,47.22
2022-11-16T10:12:11.568Z,46.76
2022-11-16T10:15:00.411Z,46.60
2022-11-16T10:18:04.454Z,45.55
2022-11-16T10:20:52.145Z,46.22
2022-11-16T10:23:42.067Z,44.93
2022-11-16T10:26:21.281Z,44.92
2022-11-16T10:28:57.446Z,44.51
2022-11-16T10:31:37.316Z,44.13
2022-11-16T10:34:03.938Z,44.14
2022-11-16T10:36:30.542Z,43.87
2022-11-16T10:38:57.137Z,43.58
2022-11-16T10:41:43.762Z,43.73
2022-11-16T10:44:21.618Z,44.07
2022-11-16T10:47:12.391Z,43.58
2022-11-16T10:49:59.176Z,44.23
2022-11-16T10:52:25.825Z,43.48
2022-11-16T10:54:52.566Z,43.93
2022-11-16T10:57:19.216Z,44.32
2022-11-16T10:59:50.635Z,44.20
2022-11-16T11:02:23.213Z,44.66
2022-11-16T11:05:20.298Z,44.26
2022-11-16T11:07:52.105Z,44.51
2022-11-16T11:10:33.134Z,44.49
2022-11-16T11:13:06.872Z,44.09
2022-11-16T11:15:33.526Z,44.43
2022-11-16T11:18:16.420Z,44.44
2022-11-16T11:20:51.479Z,44.18
2022-11-16T11:23:22.358Z,44.74
2022-11-16T11:25:55.725Z,44.58
2022-11-16T11:28:28.759Z,44.90
2022-11-16T11:31:05.967Z,44.64
2022-11-16T11:33:36.749Z,44.14
2022-11-16T11:36:07.554Z,44.33
2022-11-16T11:38:34.479Z,44.37
2022-11-16T11:41:02.445Z,44.67
2022-11-16T11:43:29.123Z,44.72
2022-11-16T11:46:02.069Z,44.56
2022-11-16T11:48:36.570Z,44.78
2022-11-16T11:51:05.072Z,44.48
2022-11-16T11:53:56.786Z,44.56
2022-11-16T11:56:23.746Z,44.49
2022-11-16T11:58:50.352Z,44.88
2022-11-16T12:01:46.258Z,44.83
2022-11-16T12:04:46.817Z,44.50
2022-11-16T12:07:23.454Z,44.57
2022-11-16T12:10:05.032Z,44.56
2022-11-16T12:12:56.203Z,44.48
2022-11-16T12:15:38.190Z,44.64
2022-11-16T12:18:20.682Z,44.57
2022-11-16T12:21:25.767Z,44.63
2022-11-16T12:24:26.161Z,44.53
2022-11-16T12:27:11.505Z,44.85
2022-11-16T12:29:52.188Z,44.44
2022-11-16T12:32:40.616Z,44.57
2022-11-16T12:35:23.201Z,44.35
2022-11-16T12:37:52.679Z,43.71
2022-11-16T12:40:51.768Z,44.46
2022-11-16T12:43:39.908Z,44.38
2022-11-16T12:46:12.982Z,44.52
2022-11-16T12:49:07.523Z,44.52
2022-11-16T12:51:36.975Z,44.01
2022-11-16T12:54:12.444Z,44.51
2022-11-16T12:57:03.669Z,44.07
2022-11-16T12:59:39.133Z,44.83
2022-11-16T13:02:27.966Z,44.46
2022-11-16T13:04:57.032Z,44.64
2022-11-16T13:07:27.208Z,44.70
2022-11-16T13:10:03.411Z,44.33
2022-11-16T13:12:30.010Z,44.11
2022-11-16T13:14:56.633Z,44.26
2022-11-16T13:17:30.957Z,44.45
2022-11-16T13:20:35.148Z,44.40
2022-11-16T13:23:07.604Z,44.03
2022-11-16T13:25:40.446Z,44.13
2022-11-16T13:28:32.149Z,44.24
2022-11-16T13:31:26.133Z,44.11
2022-11-16T13:33:59.853Z,44.01
2022-11-16T13:36:32.358Z,43.85
2022-11-16T13:38:58.960Z,44.21
2022-11-16T13:41:35.824Z,44.36
2022-11-16T13:44:03.275Z,44.88
2022-11-16T13:47:14.636Z,44.11
2022-11-16T13:49:41.709Z,44.55
2022-11-16T13:52:23.368Z,44.64
2022-11-16T13:54:52.484Z,44.14
2022-11-16T13:57:29.872Z,44.42
2022-11-16T14:00:02.311Z,44.21
2022-11-16T14:02:39.440Z,44.40
2022-11-16T14:05:11.913Z,44.50
2022-11-16T14:07:41.927Z,44.26
2022-11-16T14:10:09.723Z,43.96
2022-11-16T14:12:51.679Z,44.33
2022-11-16T14:15:26.252Z,44.04
2022-11-16T14:17:53.690Z,44.17
2022-11-16T14:20:41.614Z,44.12
2022-11-16T14:23:23.434Z,44.14
2022-11-16T14:26:02.229Z,44.28
2022-11-16T14:28:28.687Z,44.01
2022-11-16T14:31:01.017Z,44.13
2022-11-16T14:33:33.466Z,44.21
2022-11-16T14:36:01.712Z,43.91
2022-11-16T14:38:36.440Z,44.15
2022-11-16T14:41:04.897Z,43.96
2022-11-16T14:43:35.121Z,43.92
2022-11-16T14:46:07.097Z,43.64
2022-11-16T14:48:33.699Z,43.90
2022-11-16T14:51:20.556Z,43.87
2022-11-16T14:53:50.337Z,43.65
2022-11-16T14:56:17.849Z,43.33
2022-11-16T14:58:55.935Z,43.23
2022-11-16T15:01:24.429Z,43.43
2022-11-16T15:03:57.036Z,43.57
2022-11-16T15:06:24.921Z,43.26
2022-11-16T15:08:57.931Z,43.16
2022-11-16T15:11:37.333Z,43.36
2022-11-16T15:14:03.958Z,43.26
2022-11-16T15:16:30.567Z,43.79
2022-11-16T15:19:01.030Z,43.46
2022-11-16T15:21:27.779Z,43.62
2022-11-16T15:24:23.542Z,43.24
2022-11-16T15:26:40.957Z,43.53
2022-11-16T15:29:14.541Z,43.39
2022-11-16T15:31:41.778Z,43.54
2022-11-16T15:34:15.334Z,43.36
2022-11-16T15:36:41.940Z,43.37
2022-11-16T15:39:17.073Z,43.20
2022-11-16T15:41:43.671Z,43.47
2022-11-16T15:44:15.211Z,43.02
2022-11-16T15:46:42.652Z,42.93
2022-11-16T15:49:17.368Z,43.30
2022-11-16T15:51:43.961Z,43.03
2022-11-16T15:54:32.293Z,42.94
2022-11-16T15:57:05.786Z,43.14
2022-11-16T15:59:33.375Z,43.13
2022-11-16T16:02:00.012Z,43.06
2022-11-16T16:04:26.657Z,43.12
2022-11-16T16:06:54.698Z,43.29
2022-11-16T16:09:35.785Z,43.30
2022-11-16T16:12:18.419Z,43.03
2022-11-16T16:14:46.227Z,42.94
2022-11-16T16:17:21.972Z,43.36
2022-11-16T16:19:54.983Z,42.98
2022-11-16T16:22:32.315Z,42.89
2022-11-16T16:24:58.949Z,43.24
2022-11-16T16:27:27.338Z,43.26
2022-11-16T16:29:55.354Z,43.35
2022-11-16T16:32:25.858Z,43.23
2022-11-16T16:34:57.124Z,43.28
2022-11-16T16:37:23.829Z,42.74
2022-11-16T16:39:50.425Z,42.69
2022-11-16T16:42:17.111Z,43.18
2022-11-16T16:44:44.433Z,42.91
2022-11-16T16:47:11.197Z,42.93
2022-11-16T16:49:37.872Z,42.88
2022-11-16T16:52:04.695Z,43.19
2022-11-16T16:54:31.360Z,43.24
2022-11-16T16:56:57.993Z,42.65
2022-11-16T16:59:24.850Z,42.82
2022-11-16T17:01:51.525Z,43.17
2022-11-16T17:04:18.169Z,43.13
2022-11-16T17:06:46.624Z,42.62
2022-11-16T17:09:13.595Z,42.76
2022-11-16T17:11:40.311Z,39.56
2022-11-16T17:14:06.928Z,38.12
2022-11-16T17:16:36.379Z,38.28
2022-11-16T17:19:03.607Z,38.86
2022-11-16T17:21:30.349Z,39.58
2022-11-16T17:23:56.969Z,40.54
2022-11-16T17:26:23.573Z,41.37
2022-11-16T17:28:54.040Z,41.03
2022-11-16T17:31:20.654Z,40.91
2022-11-16T17:33:47.280Z,40.31
2022-11-16T17:36:13.882Z,40.22
2022-11-16T17:38:40.501Z,40.80
2022-11-16T17:41:16.708Z,40.95
2022-11-16T17:43:44.055Z,40.92
2022-11-16T17:46:14.300Z,40.80
2022-11-16T17:48:41.436Z,40.93
2022-11-16T17:51:08.041Z,41.18
2022-11-16T17:53:35.533Z,41.05
2022-11-16T17:56:03.160Z,40.56
2022-11-16T17:58:31.384Z,41.06
2022-11-16T18:00:58.045Z,40.84
2022-11-16T18:03:24.712Z,41.10
2022-11-16T18:05:51.527Z,41.07
2022-11-16T18:08:18.151Z,40.73
2022-11-16T18:10:44.774Z,41.14
2022-11-16T18:13:11.392Z,41.04
2022-11-16T18:15:42.398Z,40.77
2022-11-16T18:18:09.327Z,40.27
2022-11-16T18:20:36.390Z,40.42
2022-11-16T18:23:03.776Z,40.45
2022-11-16T18:25:30.403Z,41.13
2022-11-16T18:27:57.016Z,40.72
2022-11-16T18:30:23.739Z,40.84
2022-11-16T18:32:50.346Z,41.41
2022-11-16T18:35:16.968Z,41.35
2022-11-16T18:37:43.614Z,41.05
2022-11-16T18:40:10.454Z,41.50
2022-11-16T18:42:37.057Z,41.53
2022-11-16T18:45:03.786Z,41.69
2022-11-16T18:47:30.410Z,41.29
2022-11-16T18:49:57.088Z,41.16
2022-11-16T18:52:23.786Z,41.78
2022-11-16T18:54:50.400Z,41.73
2022-11-16T18:57:17.025Z,41.62
2022-11-16T18:59:43.729Z,41.47
2022-11-16T19:02:13.453Z,41.80
2022-11-16T19:04:40.080Z,41.58
2022-11-16T19:07:06.793Z,42.16
2022-11-16T19:09:33.436Z,41.99
2022-11-16T19:12:00.043Z,42.98
2022-11-16T19:14:26.658Z,42.37
2022-11-16T19:16:57.099Z,42.02
2022-11-16T19:19:24.082Z,42.06
2022-11-16T19:21:50.708Z,42.01
2022-11-16T19:24:17.338Z,42.09
2022-11-16T19:26:43.941Z,41.99
2022-11-16T19:29:10.549Z,41.82
2022-11-16T19:31:37.203Z,42.17
2022-11-16T19:34:05.393Z,42.09
2022-11-16T19:36:32.685Z,42.04
2022-11-16T19:38:59.321Z,41.92
2022-11-16T19:41:26.205Z,41.70
2022-11-16T19:43:53.500Z,41.60
2022-11-16T19:46:20.119Z,42.17
2022-11-16T19:48:46.780Z,41.49
2022-11-16T19:51:24.665Z,41.83
2022-11-16T19:53:51.298Z,41.99
2022-11-16T19:56:18.780Z,41.76
2022-11-16T19:58:45.384Z,41.93
2022-11-16T20:01:22.939Z,41.61
2022-11-16T20:03:49.602Z,41.97
2022-11-16T20:06:20.747Z,42.02
2022-11-16T20:08:52.215Z,41.71
2022-11-16T20:11:20.417Z,41.91
2022-11-16T20:13:48.006Z,41.69
2022-11-16T20:16:14.772Z,41.63
2022-11-16T20:18:41.694Z,41.98
2022-11-16T20:21:08.764Z,42.02
2022-11-16T20:23:35.754Z,41.99
2022-11-16T20:26:06.771Z,42.08
2022-11-16T20:28:34.751Z,42.34
2022-11-16T20:31:01.478Z,42.08
2022-11-16T20:33:28.108Z,41.75
2022-11-16T20:36:00.343Z,42.25
2022-11-16T20:38:26.975Z,41.65
2022-11-16T20:40:53.592Z,42.19
2022-11-16T20:43:20.189Z,42.36
2022-11-16T20:45:51.962Z,42.38
2022-11-16T20:48:18.585Z,41.73
2022-11-16T20:50:45.198Z,41.77
2022-11-16T20:53:11.805Z,42.15
2022-11-16T20:55:38.402Z,41.64
2022-11-16T20:58:05.008Z,41.72
2022-11-16T21:00:31.619Z,41.99
2022-11-16T21:02:58.268Z,41.55
2022-11-16T21:05:24.868Z,42.00
2022-11-16T21:07:51.470Z,41.71
2022-11-16T21:10:18.099Z,41.80
2022-11-16T21:12:44.742Z,42.02
2022-11-16T21:15:11.353Z,41.82
2022-11-16T21:17:37.958Z,42.35
2022-11-16T21:20:26.479Z,42.28
2022-11-16T21:22:51.350Z,41.94
2022-11-16T21:25:17.980Z,42.30
2022-11-16T21:27:44.594Z,42.50
2022-11-16T21:30:11.849Z,42.28
2022-11-16T21:32:38.461Z,42.30
2022-11-16T21:35:05.190Z,41.78
2022-11-16T21:37:31.807Z,41.78
2022-11-16T21:39:58.413Z,42.09
2022-11-16T21:42:25.042Z,41.79
2022-11-16T21:44:51.652Z,41.79
2022-11-16T21:47:20.871Z,42.04
2022-11-16T21:50:24.397Z,42.38
2022-11-16T21:52:34.398Z,42.32
2022-11-16T21:55:01.036Z,42.01
2022-11-16T21:57:27.633Z,41.98
2022-11-16T21:59:54.245Z,41.92
2022-11-16T22:02:20.847Z,41.96
2022-11-16T22:04:47.481Z,41.96
2022-11-16T22:07:14.488Z,42.21
2022-11-16T22:09:41.135Z,42.13
2022-11-16T22:12:07.738Z,42.40
2022-11-16T22:14:34.359Z,42.43
2022-11-16T22:17:00.980Z,42.30
2022-11-16T22:19:27.591Z,42.29
2022-11-16T22:21:54.216Z,42.29
2022-11-16T22:24:20.966Z,42.00
2022-11-16T22:26:47.580Z,42.24
2022-11-16T22:29:14.201Z,42.38
2022-11-16T22:31:40.825Z,42.07
2022-11-16T22:34:07.417Z,42.56
2022-11-16T22:36:34.028Z,42.42
2022-11-16T22:39:00.659Z,42.04
2022-11-16T22:41:27.305Z,42.06
2022-11-16T22:43:53.927Z,42.64
2022-11-16T22:46:20.573Z,42.62
2022-11-16T22:48:47.197Z,42.05
2022-11-16T22:51:21.004Z,42.03
2022-11-16T22:53:47.666Z,42.39
2022-11-16T22:56:14.287Z,42.03
2022-11-16T22:58:40.901Z,42.45
2022-11-16T23:01:08.379Z,42.27
2022-11-16T23:03:35.518Z,42.64
2022-11-16T23:06:02.743Z,42.07
2022-11-16T23:08:29.355Z,42.36
2022-11-16T23:11:03.243Z,42.42
2022-11-16T23:13:29.855Z,42.60
2022-11-16T23:15:56.456Z,42.70
2022-11-16T23:18:23.069Z,42.32
2022-11-16T23:20:49.675Z,42.29
2022-11-16T23:23:19.649Z,42.17
2022-11-16T23:25:46.580Z,42.09
2022-11-16T23:28:13.897Z,42.66
2022-11-16T23:30:40.523Z,42.16
2022-11-16T23:33:07.140Z,42.63
2022-11-16T23:35:33.757Z,42.59
2022-11-16T23:38:04.527Z,42.63
2022-11-16T23:40:32.538Z,42.12
2022-11-16T23:42:59.290Z,42.32
2022-11-16T23:45:25.893Z,42.69
2022-11-16T23:47:52.529Z,42.14
2022-11-16T23:50:19.157Z,42.33
2022-11-16T23:52:45.775Z,42.16
2022-11-16T23:55:12.384Z,42.33
2022-11-16T23:57:38.987Z,42.70
